createdAt,value
2022-12-12T00:00:10.631Z,100649.63
2022-12-12T00:02:39.832Z,100656.56
2022-12-12T00:05:10.071Z,100652.31
2022-12-12T00:07:38.580Z,100653.25
2022-12-12T00:10:07.577Z,100660.09
2022-12-12T00:12:35.814Z,100664.47
2022-12-12T00:15:06.539Z,100660.91
2022-12-12T00:17:34.763Z,100662.59
2022-12-12T00:20:03.173Z,100673.91
2022-12-12T00:22:31.361Z,100672.03
2022-12-12T00:24:59.511Z,100665.69
2022-12-12T00:27:27.673Z,100668.78
2022-12-12T00:29:56.204Z,100670.53
2022-12-12T00:32:25.797Z,100677.28
2022-12-12T00:34:53.924Z,100677.28
2022-12-12T00:37:22.068Z,100673.03
2022-12-12T00:39:50.653Z,100671.84
2022-12-12T00:42:18.815Z,100656.94
2022-12-12T00:44:46.918Z,100654.34
2022-12-12T00:47:15.093Z,100655.88
2022-12-12T00:49:44.658Z,100652.34
2022-12-12T00:52:12.833Z,100662.75
2022-12-12T00:54:42.767Z,100648.19
2022-12-12T00:57:10.907Z,100648.19
2022-12-12T00:59:39.169Z,100644.06
2022-12-12T01:02:07.372Z,100646.69
2022-12-12T01:04:35.608Z,100645.81
2022-12-12T01:07:05.233Z,100650.94
2022-12-12T01:09:34.400Z,100646.69
2022-12-12T01:12:02.748Z,100648.66
2022-12-12T01:14:30.915Z,100646.41
2022-12-12T01:16:59.087Z,100645.47
2022-12-12T01:19:27.334Z,100648.19
2022-12-12T01:21:55.793Z,100642.84
2022-12-12T01:24:25.352Z,100641.09
2022-12-12T01:26:53.585Z,100642.84
2022-12-12T01:29:21.794Z,100639.22
2022-12-12T01:31:49.908Z,100638.50
2022-12-12T01:34:18.163Z,100642.03
2022-12-12T01:36:46.317Z,100640.59
2022-12-12T01:39:14.505Z,100645.09
2022-12-12T01:41:45.181Z,100642.25
2022-12-12T01:44:42.761Z,100642.25
2022-12-12T01:47:11.514Z,100636.69
2022-12-12T01:49:39.947Z,100637.50
2022-12-12T01:52:12.335Z,100637.41
2022-12-12T01:54:43.938Z,100629.50
2022-12-12T01:57:15.083Z,100631.66
2022-12-12T01:59:45.865Z,100629.84
2022-12-12T02:02:14.326Z,100628.78
2022-12-12T02:04:43.452Z,100635.88
2022-12-12T02:07:11.930Z,100642.00
2022-12-12T02:09:40.461Z,100632.44
2022-12-12T02:12:08.697Z,100639.56
2022-12-12T02:14:39.812Z,100625.72
2022-12-12T02:17:29.175Z,100628.31
2022-12-12T02:20:33.710Z,100619.94
2022-12-12T02:23:31.017Z,100631.84
2022-12-12T02:26:16.774Z,100631.03
2022-12-12T02:29:17.240Z,100624.06
2022-12-12T02:31:53.793Z,100634.72
2022-12-12T02:34:28.307Z,100630.69
2022-12-12T02:37:09.318Z,100635.41
2022-12-12T02:39:48.089Z,100633.50
2022-12-12T02:42:25.899Z,100636.09
2022-12-12T02:44:58.078Z,100636.00
2022-12-12T02:47:31.865Z,100631.38
2022-12-12T02:50:06.303Z,100634.47
2022-12-12T02:52:35.429Z,100637.78
2022-12-12T02:55:03.591Z,100644.16
2022-12-12T02:57:31.768Z,100649.19
2022-12-12T03:00:03.710Z,100645.16
2022-12-12T03:03:35.167Z,100638.66
2022-12-12T03:06:41.011Z,100631.28
2022-12-12T03:09:17.579Z,100636.47
2022-12-12T03:11:58.679Z,100642.53
2022-12-12T03:14:36.787Z,100633.66
2022-12-12T03:17:11.939Z,100635.22
2022-12-12T03:19:48.456Z,100632.63
2022-12-12T03:22:25.977Z,100629.03
2022-12-12T03:25:02.421Z,100624.53
2022-12-12T03:27:36.016Z,100625.56
2022-12-12T03:30:07.281Z,100617.78
2022-12-12T03:32:37.826Z,100626.50
2022-12-12T03:35:13.628Z,100623.81
2022-12-12T03:37:47.705Z,100621.31
2022-12-12T03:40:20.663Z,100616.75
2022-12-12T03:42:51.434Z,100618.50
2022-12-12T03:45:25.039Z,100619.34
2022-12-12T03:48:00.179Z,100622.63
2022-12-12T03:50:34.625Z,100622.06
2022-12-12T03:53:10.336Z,100621.22
2022-12-12T03:55:44.327Z,100616.38
2022-12-12T03:58:18.439Z,100620.63
2022-12-12T04:00:50.067Z,100632.16
2022-12-12T04:03:30.290Z,100634.16
2022-12-12T04:06:23.082Z,100630.13
2022-12-12T04:09:09.918Z,100630.94
2022-12-12T04:12:00.752Z,100635.09
2022-12-12T04:14:43.514Z,100635.31
2022-12-12T04:17:16.703Z,100633.94
2022-12-12T04:20:13.181Z,100621.03
2022-12-12T04:23:05.732Z,100627.09
2022-12-12T04:25:59.879Z,100624.50
2022-12-12T04:28:30.385Z,100626.38
2022-12-12T04:31:03.237Z,100628.84
2022-12-12T04:33:38.558Z,100630.59
2022-12-12T04:36:13.170Z,100629.91
2022-12-12T04:38:44.167Z,100628.25
2022-12-12T04:41:14.606Z,100629.91
2022-12-12T04:43:47.838Z,100615.84
2022-12-12T04:46:19.469Z,100618.44
2022-12-12T04:48:53.748Z,100613.16
2022-12-12T04:51:27.932Z,100606.31
2022-12-12T04:54:01.494Z,100613.16
2022-12-12T04:56:32.002Z,100613.16
2022-12-12T04:59:00.330Z,100608.91
2022-12-12T05:01:36.824Z,100608.91
2022-12-12T05:04:09.096Z,100616.81
2022-12-12T05:06:44.552Z,100618.53
2022-12-12T05:09:17.649Z,100609.44
2022-12-12T05:11:45.858Z,100611.16
2022-12-12T05:14:17.070Z,100614.72
2022-12-12T05:16:48.703Z,100616.59
2022-12-12T05:19:16.879Z,100610.25
2022-12-12T05:21:45.237Z,100616.97
2022-12-12T05:24:14.838Z,100616.16
2022-12-12T05:26:42.908Z,100624.88
2022-12-12T05:29:11.084Z,100615.22
2022-12-12T05:31:39.160Z,100609.94
2022-12-12T05:34:07.232Z,100618.28
2022-12-12T05:36:35.428Z,100621.63
2022-12-12T05:39:03.650Z,100623.28
2022-12-12T05:41:33.353Z,100618.09
2022-12-12T05:44:01.593Z,100624.09
2022-12-12T05:46:29.896Z,100620.56
2022-12-12T05:48:58.047Z,100617.47
2022-12-12T05:51:26.186Z,100619.25
2022-12-12T05:53:54.413Z,100601.31
2022-12-12T05:56:22.483Z,100608.16
2022-12-12T05:58:52.088Z,100603.66
2022-12-12T06:01:20.162Z,100604.59
2022-12-12T06:03:48.452Z,100595.88
2022-12-12T06:06:16.589Z,100600.13
2022-12-12T06:08:44.812Z,100600.84
2022-12-12T06:11:13.836Z,100602.00
2022-12-12T06:13:42.054Z,100610.97
2022-12-12T06:16:14.421Z,100606.50
2022-12-12T06:18:42.651Z,100608.91
2022-12-12T06:21:14.048Z,100604.78
2022-12-12T06:23:43.687Z,100597.84
2022-12-12T06:26:13.846Z,100601.38
2022-12-12T06:28:42.339Z,100604.69
2022-12-12T06:31:13.290Z,100608.25
2022-12-12T06:33:42.779Z,100603.06
2022-12-12T06:36:16.813Z,100602.09
2022-12-12T06:38:45.061Z,100610.84
2022-12-12T06:41:15.787Z,100608.13
2022-12-12T06:43:43.880Z,100607.91
2022-12-12T06:46:19.601Z,100597.13
2022-12-12T06:48:48.142Z,100601.84
2022-12-12T06:51:17.912Z,100609.75
2022-12-12T06:53:46.307Z,100603.00
2022-12-12T06:56:16.255Z,100603.31
2022-12-12T06:58:44.689Z,100606.75
2022-12-12T07:01:15.452Z,100611.03
2022-12-12T07:03:43.801Z,100612.78
2022-12-12T07:06:12.041Z,100609.13
2022-12-12T07:08:42.026Z,100609.84
2022-12-12T07:11:13.463Z,100613.16
2022-12-12T07:13:41.618Z,100604.56
2022-12-12T07:16:10.468Z,100609.84
2022-12-12T07:18:40.528Z,100608.06
2022-12-12T07:21:13.082Z,100614.00
2022-12-12T07:23:41.338Z,100610.78
2022-12-12T07:26:13.376Z,100610.09
2022-12-12T07:28:41.821Z,100611.59
2022-12-12T07:31:11.843Z,100614.13
2022-12-12T07:33:44.519Z,100612.44
2022-12-12T07:36:13.730Z,100614.44
2022-12-12T07:38:42.422Z,100616.22
2022-12-12T07:41:16.698Z,100618.91
2022-12-12T07:43:46.372Z,100619.16
2022-12-12T07:46:17.279Z,100619.72
2022-12-12T07:48:47.663Z,100623.28
2022-12-12T07:51:16.557Z,100621.41
2022-12-12T07:53:44.763Z,100624.94
2022-12-12T07:56:15.554Z,100630.25
2022-12-12T07:58:43.943Z,100632.63
2022-12-12T08:01:14.880Z,100624.94
2022-12-12T08:03:43.677Z,100628.47
2022-12-12T08:06:14.372Z,100635.31
2022-12-12T08:08:48.200Z,100630.94
2022-12-12T08:11:18.685Z,100637.91
2022-12-12T08:13:47.510Z,100628.34
2022-12-12T08:16:18.425Z,100625.75
2022-12-12T08:18:47.295Z,100630.94
2022-12-12T08:21:25.075Z,100624.84
2022-12-12T08:23:57.058Z,100630.25
2022-12-12T08:26:26.077Z,100640.97
2022-12-12T08:28:54.368Z,100634.13
2022-12-12T08:31:23.441Z,100626.09
2022-12-12T08:33:51.848Z,100626.81
2022-12-12T08:36:23.310Z,100632.00
2022-12-12T08:38:52.209Z,100622.31
2022-12-12T08:41:21.192Z,100621.41
2022-12-12T08:43:50.292Z,100622.25
2022-12-12T08:46:19.907Z,100616.81
2022-12-12T08:48:48.669Z,100615.03
2022-12-12T08:51:18.511Z,100612.44
2022-12-12T08:53:49.126Z,100621.16
2022-12-12T08:56:18.312Z,100628.97
2022-12-12T08:58:46.874Z,100623.66
2022-12-12T09:01:16.767Z,100626.16
2022-12-12T09:03:44.958Z,100631.34
2022-12-12T09:06:14.436Z,100627.59
2022-12-12T09:08:43.599Z,100618.03
2022-12-12T09:11:14.021Z,100616.25
2022-12-12T09:13:42.419Z,100621.31
2022-12-12T09:16:11.404Z,100627.13
2022-12-12T09:18:46.353Z,100624.41
2022-12-12T09:21:17.086Z,100614.75
2022-12-12T09:23:46.292Z,100622.41
2022-12-12T09:26:15.884Z,100623.25
2022-12-12T09:28:43.939Z,100620.44
2022-12-12T09:31:14.050Z,100626.44
2022-12-12T09:33:43.081Z,100626.31
2022-12-12T09:36:12.225Z,100619.03
2022-12-12T09:38:40.949Z,100617.97
2022-12-12T09:41:16.698Z,100618.69
2022-12-12T09:43:52.817Z,100616.81
2022-12-12T09:46:33.359Z,100614.09
2022-12-12T09:49:23.810Z,100606.78
2022-12-12T09:51:53.446Z,100601.34
2022-12-12T09:54:23.901Z,100610.69
2022-12-12T09:57:12.165Z,100615.03
2022-12-12T09:59:45.587Z,100604.44
2022-12-12T10:02:29.707Z,100603.59
2022-12-12T10:05:03.093Z,100606.81
2022-12-12T10:07:40.196Z,100604.09
2022-12-12T10:10:21.906Z,100599.84
2022-12-12T10:12:53.923Z,100597.94
2022-12-12T10:15:30.884Z,100601.13
2022-12-12T10:18:01.781Z,100605.50
2022-12-12T10:20:32.263Z,100603.47
2022-12-12T10:23:03.758Z,100606.81
2022-12-12T10:25:42.776Z,100598.06
2022-12-12T10:28:15.521Z,100598.66
2022-12-12T10:31:10.722Z,100606.69
2022-12-12T10:33:52.500Z,100613.53
2022-12-12T10:36:29.823Z,100608.00
2022-12-12T10:39:14.294Z,100608.25
2022-12-12T10:41:48.351Z,100604.56
2022-12-12T10:44:32.491Z,100607.75
2022-12-12T10:47:04.508Z,100604.34
2022-12-12T10:49:33.626Z,100602.34
2022-12-12T10:52:04.964Z,100600.53
2022-12-12T10:54:34.994Z,100603.34
2022-12-12T10:57:11.097Z,100594.50
2022-12-12T10:59:45.782Z,100590.88
2022-12-12T11:02:38.696Z,100588.03
2022-12-12T11:05:18.090Z,100589.34
2022-12-12T11:07:49.694Z,100593.69
2022-12-12T11:10:32.141Z,100586.75
2022-12-12T11:13:04.983Z,100598.91
2022-12-12T11:15:42.414Z,100594.19
2022-12-12T11:18:16.557Z,100583.66
2022-12-12T11:20:47.927Z,100585.22
2022-12-12T11:23:18.592Z,100574.22
2022-12-12T11:25:47.445Z,100580.72
2022-12-12T11:28:23.355Z,100579.53
2022-12-12T11:30:59.005Z,100569.59
2022-12-12T11:33:33.736Z,100576.34
2022-12-12T11:36:06.564Z,100570.66
2022-12-12T11:38:41.214Z,100569.34
2022-12-12T11:41:11.219Z,100561.75
2022-12-12T11:43:53.528Z,100545.81
2022-12-12T11:46:26.407Z,100552.53
2022-12-12T11:49:03.054Z,100542.88
2022-12-12T11:51:38.255Z,100547.13
2022-12-12T11:54:13.196Z,100540.72
2022-12-12T11:56:54.217Z,100526.75
2022-12-12T11:59:33.674Z,100528.78
2022-12-12T12:02:21.915Z,100528.13
2022-12-12T12:04:56.668Z,100526.25
2022-12-12T12:07:46.143Z,100522.69
2022-12-12T12:10:24.244Z,100508.34
2022-12-12T12:13:01.765Z,100509.91
2022-12-12T12:15:37.210Z,100503.97
2022-12-12T12:18:32.056Z,100511.84
2022-12-12T12:21:27.754Z,100513.97
2022-12-12T12:24:07.405Z,100511.84
2022-12-12T12:26:41.289Z,100497.50
2022-12-12T12:29:31.036Z,100505.19
2022-12-12T12:32:09.724Z,100504.25
2022-12-12T12:34:50.029Z,100512.06
2022-12-12T12:37:33.034Z,100511.34
2022-12-12T12:40:15.668Z,100505.19
2022-12-12T12:42:59.819Z,100507.22
2022-12-12T12:45:37.735Z,100500.25
2022-12-12T12:48:16.828Z,100507.59
2022-12-12T12:50:52.103Z,100506.75
2022-12-12T12:53:30.293Z,100508.19
2022-12-12T12:56:04.178Z,100505.69
2022-12-12T12:58:39.858Z,100509.00
2022-12-12T13:01:12.919Z,100504.63
2022-12-12T13:03:47.392Z,100503.50
2022-12-12T13:06:22.531Z,100497.66
2022-12-12T13:08:59.020Z,100505.38
2022-12-12T13:11:38.753Z,100500.72
2022-12-12T13:14:14.553Z,100506.78
2022-12-12T13:16:44.423Z,100497.03
2022-12-12T13:19:17.147Z,100502.94
2022-12-12T13:21:54.029Z,100504.47
2022-12-12T13:24:27.271Z,100507.91
2022-12-12T13:27:02.788Z,100510.50
2022-12-12T13:29:40.713Z,100498.47
2022-12-12T13:32:39.848Z,100505.53
2022-12-12T13:35:12.996Z,100508.66
2022-12-12T13:37:49.619Z,100507.16
2022-12-12T13:40:28.354Z,100505.47
2022-12-12T13:43:01.647Z,100503.69
2022-12-12T13:45:42.974Z,100503.69
2022-12-12T13:48:41.435Z,100504.06
2022-12-12T13:51:31.410Z,100502.78
2022-12-12T13:54:51.296Z,100507.31
2022-12-12T13:57:26.982Z,100502.03
2022-12-12T14:00:19.853Z,100494.13
2022-12-12T14:03:01.484Z,100503.00
2022-12-12T14:05:33.104Z,100513.41
2022-12-12T14:08:20.529Z,100500.63
2022-12-12T14:10:56.632Z,100513.09
2022-12-12T14:13:50.792Z,100509.41
2022-12-12T14:16:23.142Z,100509.41
2022-12-12T14:19:04.275Z,100513.66
2022-12-12T14:21:45.200Z,100508.72
2022-12-12T14:24:48.161Z,100499.50
2022-12-12T14:27:16.813Z,100512.88
2022-12-12T14:29:47.234Z,100513.84
2022-12-12T14:32:41.895Z,100503.44
2022-12-12T14:35:29.254Z,100508.72
2022-12-12T14:38:03.754Z,100512.28
2022-12-12T14:40:34.991Z,100515.84
2022-12-12T14:43:19.208Z,100514.75
2022-12-12T14:45:57.350Z,100513.94
2022-12-12T14:48:29.927Z,100508.72
2022-12-12T14:51:02.844Z,100502.69
2022-12-12T14:53:35.290Z,100499.41
2022-12-12T14:56:08.711Z,100496.69
2022-12-12T14:58:41.316Z,100501.28
2022-12-12T15:01:11.374Z,100499.66
2022-12-12T15:03:44.515Z,100496.47
2022-12-12T15:06:30.564Z,100497.53
2022-12-12T15:09:08.429Z,100505.59
2022-12-12T15:11:37.158Z,100495.31
2022-12-12T15:14:05.787Z,100503.47
2022-12-12T15:16:47.669Z,100491.81
2022-12-12T15:19:20.567Z,100498.41
2022-12-12T15:21:49.438Z,100497.47
2022-12-12T15:24:23.360Z,100499.94
2022-12-12T15:26:53.380Z,100505.00
2022-12-12T15:29:24.932Z,100505.00
2022-12-12T15:32:00.506Z,100505.13
2022-12-12T15:34:43.454Z,100501.72
2022-12-12T15:37:23.258Z,100504.31
2022-12-12T15:40:17.631Z,100503.47
2022-12-12T15:42:48.641Z,100497.69
2022-12-12T15:45:20.971Z,100495.91
2022-12-12T15:47:53.264Z,100498.78
2022-12-12T15:50:23.619Z,100489.19
2022-12-12T15:53:02.593Z,100498.66
2022-12-12T15:55:31.611Z,100499.47
2022-12-12T15:58:00.124Z,100492.50
2022-12-12T16:00:35.526Z,100496.72
2022-12-12T16:03:20.294Z,100498.41
2022-12-12T16:06:03.213Z,100495.69
2022-12-12T16:08:40.507Z,100492.25
2022-12-12T16:11:32.883Z,100489.53
2022-12-12T16:14:01.438Z,100497.47
2022-12-12T16:16:53.713Z,100492.94
2022-12-12T16:19:46.575Z,100497.47
2022-12-12T16:22:21.562Z,100492.25
2022-12-12T16:24:51.802Z,100488.94
2022-12-12T16:27:20.380Z,100487.41
2022-12-12T16:29:49.119Z,100489.28
2022-12-12T16:32:19.359Z,100494.63
2022-12-12T16:34:49.037Z,100495.72
2022-12-12T16:37:19.437Z,100496.63
2022-12-12T16:39:47.650Z,100490.75
2022-12-12T16:42:17.048Z,100490.28
2022-12-12T16:44:45.705Z,100496.53
2022-12-12T16:47:17.243Z,100498.44
2022-12-12T16:49:45.582Z,100496.91
2022-12-12T16:52:15.851Z,100497.25
2022-12-12T16:54:52.585Z,100505.06
2022-12-12T16:57:22.015Z,100514.63
2022-12-12T16:59:50.397Z,100517.25
2022-12-12T17:02:21.476Z,100508.75
2022-12-12T17:04:50.188Z,100517.50
2022-12-12T17:07:20.245Z,100512.41
2022-12-12T17:09:48.418Z,100509.56
2022-12-12T17:12:16.537Z,100515.47
2022-12-12T17:14:44.778Z,100506.72
2022-12-12T17:17:13.339Z,100502.47
2022-12-12T17:19:41.412Z,100501.50
2022-12-12T17:22:09.479Z,100504.13
2022-12-12T17:24:39.044Z,100506.84
2022-12-12T17:27:07.135Z,100502.47
2022-12-12T17:29:35.304Z,100498.34
2022-12-12T17:32:06.477Z,100499.31
2022-12-12T17:34:34.728Z,100492.31
2022-12-12T17:37:02.965Z,100499.41
2022-12-12T17:39:31.030Z,100495.97
2022-12-12T17:42:00.561Z,100494.19
2022-12-12T17:44:28.799Z,100497.75
2022-12-12T17:46:56.838Z,100495.28
2022-12-12T17:49:25.030Z,100498.81
2022-12-12T17:51:53.297Z,100504.72
2022-12-12T17:54:21.873Z,100488.03
2022-12-12T17:56:50.900Z,100489.84
2022-12-12T17:59:20.892Z,100492.69
2022-12-12T18:01:56.908Z,100493.50
2022-12-12T18:04:28.539Z,100486.16
2022-12-12T18:06:56.923Z,100487.84
2022-12-12T18:09:26.112Z,100481.69
2022-12-12T18:11:54.259Z,100477.91
2022-12-12T18:14:23.833Z,100480.25
2022-12-12T18:16:53.316Z,100479.06
2022-12-12T18:19:23.233Z,100472.78
2022-12-12T18:22:01.006Z,100462.50
2022-12-12T18:24:30.544Z,100467.56
2022-12-12T18:27:00.135Z,100463.19
2022-12-12T18:29:29.702Z,100465.09
2022-12-12T18:31:57.865Z,100458.38
2022-12-12T18:34:26.450Z,100462.50
2022-12-12T18:36:54.603Z,100456.50
2022-12-12T18:39:22.864Z,100455.41
2022-12-12T18:41:52.187Z,100453.38
2022-12-12T18:44:20.340Z,100452.56
2022-12-12T18:46:50.732Z,100455.84
2022-12-12T18:49:19.241Z,100441.94
2022-12-12T18:51:48.036Z,100453.97
2022-12-12T18:54:17.162Z,100446.41
2022-12-12T18:56:46.586Z,100440.00
2022-12-12T18:59:15.073Z,100439.19
2022-12-12T19:01:43.753Z,100444.53
2022-12-12T19:04:20.847Z,100435.31
2022-12-12T19:06:51.243Z,100444.31
2022-12-12T19:09:20.534Z,100455.66
2022-12-12T19:11:49.171Z,100451.28
2022-12-12T19:14:18.329Z,100447.03
2022-12-12T19:16:46.989Z,100449.75
2022-12-12T19:19:16.684Z,100456.72
2022-12-12T19:21:46.410Z,100458.63
2022-12-12T19:24:14.568Z,100450.00
2022-12-12T19:26:44.470Z,100453.66
2022-12-12T19:29:14.264Z,100446.91
2022-12-12T19:31:42.864Z,100453.31
2022-12-12T19:34:13.315Z,100447.03
2022-12-12T19:36:43.680Z,100461.22
2022-12-12T19:39:13.806Z,100471.75
2022-12-12T19:41:42.606Z,100473.41
2022-12-12T19:44:13.157Z,100480.03
2022-12-12T19:46:43.226Z,100482.63
2022-12-12T19:49:13.729Z,100475.50
2022-12-12T19:51:45.026Z,100488.63
2022-12-12T19:54:14.434Z,100500.13
2022-12-12T19:56:42.636Z,100487.69
2022-12-12T19:59:13.380Z,100505.19
2022-12-12T20:01:42.143Z,100504.38
2022-12-12T20:04:15.876Z,100506.72
2022-12-12T20:06:46.533Z,100507.44
2022-12-12T20:09:17.709Z,100506.25
2022-12-12T20:11:46.057Z,100503.53
2022-12-12T20:14:16.459Z,100505.06
2022-12-12T20:16:45.178Z,100512.16
2022-12-12T20:19:14.307Z,100513.09
2022-12-12T20:22:03.318Z,100505.16
2022-12-12T20:24:33.027Z,100503.66
2022-12-12T20:27:03.244Z,100501.16
2022-12-12T20:29:31.729Z,100501.28
2022-12-12T20:32:01.387Z,100498.69
2022-12-12T20:34:30.259Z,100498.91
2022-12-12T20:36:59.766Z,100496.69
2022-12-12T20:39:28.173Z,100494.56
2022-12-12T20:41:57.060Z,100504.97
2022-12-12T20:44:25.861Z,100501.31
2022-12-12T20:46:54.490Z,100505.09
2022-12-12T20:49:24.799Z,100503.44
2022-12-12T20:51:56.460Z,100499.88
2022-12-12T20:54:28.893Z,100514.06
2022-12-12T20:56:57.699Z,100507.22
2022-12-12T20:59:26.073Z,100501.28
2022-12-12T21:01:54.598Z,100506.63
2022-12-12T21:04:24.353Z,100509.34
2022-12-12T21:06:52.932Z,100515.38
2022-12-12T21:09:25.803Z,100510.31
2022-12-12T21:11:59.055Z,100511.22
2022-12-12T21:14:30.889Z,100516.69
2022-12-12T21:16:59.129Z,100523.75
2022-12-12T21:19:27.626Z,100526.47
2022-12-12T21:21:56.232Z,100525.66
2022-12-12T21:24:24.608Z,100528.00
2022-12-12T21:26:52.862Z,100525.41
2022-12-12T21:29:22.364Z,100533.19
2022-12-12T21:31:52.339Z,100535.78
2022-12-12T21:34:22.318Z,100534.88
2022-12-12T21:36:53.857Z,100533.09
2022-12-12T21:39:23.235Z,100543.59
2022-12-12T21:41:51.801Z,100531.66
2022-12-12T21:44:21.005Z,100540.50
2022-12-12T21:46:50.659Z,100536.50
2022-12-12T21:49:27.773Z,100540.38
2022-12-12T21:51:58.048Z,100540.63
2022-12-12T21:54:26.861Z,100536.28
2022-12-12T21:56:55.615Z,100534.72
2022-12-12T21:59:24.652Z,100544.50
2022-12-12T22:01:55.800Z,100544.63
2022-12-12T22:04:23.762Z,100544.97
2022-12-12T22:06:51.898Z,100538.34
2022-12-12T22:09:20.155Z,100536.72
2022-12-12T22:12:03.621Z,100541.28
2022-12-12T22:14:33.896Z,100545.66
2022-12-12T22:17:04.191Z,100549.34
2022-12-12T22:19:32.644Z,100551.31
2022-12-12T22:22:00.929Z,100547.91
2022-12-12T22:24:29.201Z,100550.59
2022-12-12T22:26:57.282Z,100547.19
2022-12-12T22:29:25.493Z,100553.31
2022-12-12T22:31:53.817Z,100549.69
2022-12-12T22:34:24.737Z,100549.44
2022-12-12T22:36:53.673Z,100552.75
2022-12-12T22:39:24.113Z,100553.47
2022-12-12T22:41:52.424Z,100565.97
2022-12-12T22:44:22.973Z,100562.13
2022-12-12T22:46:53.132Z,100558.22
2022-12-12T22:49:26.710Z,100553.63
2022-12-12T22:51:55.786Z,100557.28
2022-12-12T22:54:24.128Z,100557.78
2022-12-12T22:56:52.343Z,100558.25
2022-12-12T22:59:20.549Z,100556.34
2022-12-12T23:01:48.723Z,100557.09
2022-12-12T23:04:16.959Z,100556.81
2022-12-12T23:06:46.787Z,100556.00
2022-12-12T23:09:17.414Z,100554.97
2022-12-12T23:11:46.367Z,100553.19
2022-12-12T23:14:16.551Z,100552.00
2022-12-12T23:16:45.204Z,100556.25
2022-12-12T23:19:16.212Z,100562.28
2022-12-12T23:21:44.570Z,100561.69
2022-12-12T23:24:15.231Z,100555.66
2022-12-12T23:26:44.068Z,100557.78
2022-12-12T23:29:16.495Z,100556.97
2022-12-12T23:31:44.931Z,100552.81
2022-12-12T23:34:18.248Z,100555.19
2022-12-12T23:36:46.423Z,100555.78
2022-12-12T23:39:16.134Z,100558.38
2022-12-12T23:41:44.508Z,100561.81
2022-12-12T23:44:14.498Z,100550.44
2022-12-12T23:46:43.295Z,100557.31
2022-12-12T23:49:16.671Z,100549.41
2022-12-12T23:51:46.345Z,100543.34
2022-12-12T23:54:18.065Z,100540.53
2022-12-12T23:56:47.101Z,100549.50
2022-12-12T23:59:18.206Z,100540.19
